Air Quality Table

TIMESTAMP NO2 SO2 O3 PM10 PM2.5 CO TEMP HUM AIRPRES WS WD NO BENZENE
2023-02-02 01:00 28.16 µg/m3 0.84 µg/m3 45 µg/m3 10.09 µg/m3 4.83 µg/m3 0.43 mg/m3 11.63 °C 66.15 % 1,024.49 mbar 1.19 m/s 218.82 Deg 13.31 µg/m3 1.78 µg/m3
2023-02-01 17:00 23.95 µg/m3 1.35 µg/m3 53.4 µg/m3 22.04 µg/m3 7.32 µg/m3 0.45 mg/m3 13.72 °C 55.15 % 1,024.67 mbar 1.88 m/s 126.85 Deg 12.98 µg/m3 2.14 µg/m3
2023-02-01 09:00 36.04 µg/m3 1.38 µg/m3 31.83 µg/m3 21.73 µg/m3 8.09 µg/m3 0.41 mg/m3 10.84 °C 66.95 % 1,023.28 mbar 1.32 m/s 185.91 Deg 63.66 µg/m3 2.7 µg/m3
2023-02-01 01:00 4.63 µg/m3 0.48 µg/m3 63.17 µg/m3 13.29 µg/m3 6.58 µg/m3 0.24 mg/m3 13.7 °C 64.52 % 1,020.87 mbar 4.26 m/s 204.34 Deg 1.42 µg/m3 0.98 µg/m3
2023-01-31 17:00 6.94 µg/m3 0.5 µg/m3 63.21 µg/m3 17.68 µg/m3 7.44 µg/m3 0.22 mg/m3 14.45 °C 61.3 % 1,019.28 mbar 4.98 m/s 334.66 Deg 3.4 µg/m3 0.99 µg/m3
2023-01-31 09:00 9.52 µg/m3 0.47 µg/m3 61.9 µg/m3 11.99 µg/m3 5.6 µg/m3 0.25 mg/m3 13.06 °C 67.08 % 1,019.27 mbar 3.15 m/s 300.5 Deg 2.03 µg/m3 1.52 µg/m3
2023-01-31 01:00 10.38 µg/m3 0.62 µg/m3 56.74 µg/m3 10.32 µg/m3 5.49 µg/m3 0.31 mg/m3 12.86 °C 67.64 % 1,019.96 mbar 2.09 m/s 282.63 Deg 1.12 µg/m3 1.77 µg/m3
2023-01-30 17:00 15.79 µg/m3 1.14 µg/m3 51.94 µg/m3 16.53 µg/m3 6.65 µg/m3 0.38 mg/m3 13.97 °C 63.25 % 1,019.46 mbar 2.59 m/s 239.33 Deg 8.72 µg/m3 2.32 µg/m3
2023-01-30 09:00 31 µg/m3 1.4 µg/m3 32.53 µg/m3 14.12 µg/m3 7.02 µg/m3 0.42 mg/m3 10.76 °C 78.43 % 1,018.29 mbar 2.02 m/s 174.88 Deg 57.93 µg/m3 3.02 µg/m3
2023-01-30 01:00 12.51 µg/m3 0.6 µg/m3 51.43 µg/m3 11.63 µg/m3 5.67 µg/m3 0.35 mg/m3 12.01 °C 76.6 % 1,017.55 mbar 3.5 m/s 109.5 Deg 4.35 µg/m3 1.97 µg/m3
2023-01-29 17:00 7.8 µg/m3 0.71 µg/m3 57.37 µg/m3 10.39 µg/m3 3.91 µg/m3 0.33 mg/m3 12.88 °C 70.14 % 1,016.38 mbar 4.47 m/s 54.98 Deg 4.14 µg/m3 1.92 µg/m3
2023-01-29 09:00 14.01 µg/m3 0.52 µg/m3 51.1 µg/m3 4.34 µg/m3 2.27 µg/m3 0.29 mg/m3 10.72 °C 76.84 % 1,014.73 mbar 1.54 m/s 241.99 Deg 4.28 µg/m3 1.3 µg/m3
2023-01-29 01:00 16.09 µg/m3 0.58 µg/m3 48.41 µg/m3 7.2 µg/m3 3.11 µg/m3 0.33 mg/m3 10.08 °C 80.33 % 1,013.01 mbar 2.09 m/s 238.3 Deg 7.53 µg/m3 1.53 µg/m3
2023-01-28 17:00 19.06 µg/m3 0.65 µg/m3 48.8 µg/m3 7.41 µg/m3 2.86 µg/m3 0.32 mg/m3 11.23 °C 76.3 % 1,010.82 mbar 2.38 m/s 256.99 Deg 9.81 µg/m3 1.44 µg/m3
2023-01-28 09:00 18.88 µg/m3 0.51 µg/m3 52.38 µg/m3 5.79 µg/m3 2.36 µg/m3 0.27 mg/m3 10.18 °C 76.16 % 1,009.56 mbar 2.6 m/s 256.36 Deg 8.94 µg/m3 1.34 µg/m3
2023-01-28 01:00 7.31 µg/m3 0.4 µg/m3 56.95 µg/m3 11.51 µg/m3 4.52 µg/m3 0.28 mg/m3 11.98 °C 75.1 % 1,008.76 mbar 2.2 m/s 279.47 Deg 2.38 µg/m3 1.39 µg/m3
2023-01-27 17:00 8.84 µg/m3 0.47 µg/m3 58.97 µg/m3 10.71 µg/m3 3.39 µg/m3 0.24 mg/m3 12.98 °C 71.37 % 1,005.27 mbar 3.65 m/s 317.74 Deg 4.6 µg/m3 1.11 µg/m3
2023-01-27 09:00 10.26 µg/m3 0.45 µg/m3 61.66 µg/m3 7.37 µg/m3 3.23 µg/m3 0.24 mg/m3 11.06 °C 80.7 % 1,002.70 mbar 4.42 m/s 266.4 Deg 2.48 µg/m3 1.01 µg/m3
2023-01-27 01:00 20.43 µg/m3 0.64 µg/m3 43.7 µg/m3 6.5 µg/m3 3.04 µg/m3 0.35 mg/m3 9.24 °C 81.79 % 1,005.43 mbar 1.49 m/s 216 Deg 8.97 µg/m3 1.71 µg/m3
2023-01-26 17:00 15.9 µg/m3 0.86 µg/m3 49.22 µg/m3 17.85 µg/m3 5.79 µg/m3 0.44 mg/m3 12.85 °C 61.42 % 1,006.40 mbar 4.87 m/s 256.28 Deg 16.26 µg/m3 1.86 µg/m3
2023-01-26 09:00 40.47 µg/m3 1.62 µg/m3 35.54 µg/m3 20.41 µg/m3 6.8 µg/m3 0.45 mg/m3 10.25 °C 76.74 % 1,008.88 mbar 1.71 m/s 241.97 Deg 92.04 µg/m3 2.6 µg/m3
2023-01-26 01:00 32.18 µg/m3 1.11 µg/m3 31.19 µg/m3 18.44 µg/m3 6.15 µg/m3 0.43 mg/m3 11.05 °C 72.03 % 1,012.23 mbar 1.43 m/s 226.79 Deg 26.99 µg/m3 2.41 µg/m3
2023-01-25 17:00 19.91 µg/m3 0.68 µg/m3 53.78 µg/m3 16.75 µg/m3 4.68 µg/m3 0.38 mg/m3 13.9 °C 65.24 % 1,014.51 mbar 1.97 m/s 280.35 Deg 10.88 µg/m3 1.27 µg/m3
2023-01-25 09:00 33.96 µg/m3 1.1 µg/m3 29.77 µg/m3 8.46 µg/m3 3.61 µg/m3 0.39 mg/m3 11.23 °C 84.68 % 1,015.71 mbar 1 m/s 210.67 Deg 44.8 µg/m3 1.9 µg/m3
2023-01-25 01:00 38.47 µg/m3 1.06 µg/m3 23.24 µg/m3 7.69 µg/m3 4.37 µg/m3 0.44 mg/m3 9.66 °C 90.85 % 1,017.90 mbar 0.59 m/s 201.97 Deg 14.98 µg/m3 2.2 µg/m3
2023-01-24 17:00 42.17 µg/m3 0.95 µg/m3 32.44 µg/m3 18.11 µg/m3 5.54 µg/m3 0.38 mg/m3 12.75 °C 70.21 % 1,019.88 mbar 1.12 m/s 222.94 Deg 21.82 µg/m3 47.54 µg/m3
2023-01-24 09:00 37.58 µg/m3 1.28 µg/m3 25.34 µg/m3 9.88 µg/m3 4.46 µg/m3 0.43 mg/m3 9.36 °C 74.26 % 1,021.09 mbar 0.52 m/s 214.8 Deg 48.87 µg/m3 11.26 µg/m3
2023-01-24 01:00 34.7 µg/m3 1.12 µg/m3 27.17 µg/m3 18.77 µg/m3 8.9 µg/m3 0.42 mg/m3 9.41 °C 66.21 % 1,020.27 mbar 0.69 m/s 235.71 Deg 19.24 µg/m3 2.37 µg/m3
2023-01-23 17:00 20.92 µg/m3 0.73 µg/m3 45.67 µg/m3 14.51 µg/m3 3.34 µg/m3 0.28 mg/m3 13.29 °C 56.78 % 1,017.90 mbar 2.98 m/s 248.87 Deg 11.26 µg/m3 6.57 µg/m3
2023-01-23 09:00 14.39 µg/m3 0.78 µg/m3 42.59 µg/m3 7.24 µg/m3 2.71 µg/m3 0.25 mg/m3 10.33 °C 66.57 % 1,015.38 mbar 2.58 m/s 254.7 Deg 5.75 µg/m3 1.51 µg/m3
2023-01-23 01:00 11.06 µg/m3 0.52 µg/m3 53.28 µg/m3 5.89 µg/m3 2.36 µg/m3 0.26 mg/m3 8.64 °C 79.94 % 1,013.18 mbar 3.42 m/s 264.38 Deg 4.15 µg/m3 1.12 µg/m3
2023-01-22 17:00 14.01 µg/m3 0.55 µg/m3 46.91 µg/m3 6.88 µg/m3 3.07 µg/m3 0.28 mg/m3 10.36 °C 84.66 % 1,010.72 mbar 2.39 m/s 281.35 Deg 6.53 µg/m3 1.61 µg/m3
2023-01-22 09:00 15.55 µg/m3 0.48 µg/m3 48.64 µg/m3 13.71 µg/m3 5.25 µg/m3 0.21 mg/m3 11.55 °C 69.62 % 1,010.93 mbar 2.43 m/s 222.16 Deg 4.23 µg/m3 0.81 µg/m3
2023-01-22 01:00 15.2 µg/m3 0.52 µg/m3 47.52 µg/m3 14.39 µg/m3 5.98 µg/m3 0.26 mg/m3 12.04 °C 57.28 % 1,012.42 mbar 3.18 m/s 238.63 Deg 4.65 µg/m3 1.1 µg/m3
2023-01-21 17:00 6.24 µg/m3 0.44 µg/m3 56.5 µg/m3 14.18 µg/m3 6.37 µg/m3 0.21 mg/m3 12.81 °C 57.28 % 1,011.37 mbar 5.54 m/s 275.31 Deg 3.2 µg/m3 0.88 µg/m3
2023-01-21 09:00 5.99 µg/m3 0.32 µg/m3 60.28 µg/m3 13.3 µg/m3 6.76 µg/m3 0.18 mg/m3 11.72 °C 63.99 % 1,009.90 mbar 6.93 m/s 278.79 Deg 0.98 µg/m3 0.7 µg/m3
2023-01-21 01:00 2.79 µg/m3 0.36 µg/m3 61.16 µg/m3 40.41 µg/m3 13.33 µg/m3 0.2 mg/m3 13.46 °C 64.46 % 1,008.84 mbar 7.71 m/s 268.09 Deg 0.77 µg/m3 0.68 µg/m3
2023-01-20 17:00 10.56 µg/m3 0.57 µg/m3 52.44 µg/m3 24.35 µg/m3 7.82 µg/m3 0.26 mg/m3 14.32 °C 56.62 % 1,009.47 mbar 8.18 m/s 248.39 Deg 6.52 µg/m3 0.82 µg/m3
2023-01-20 09:00 21.71 µg/m3 0.92 µg/m3 44.2 µg/m3 10.5 µg/m3 4.59 µg/m3 0.29 mg/m3 10.12 °C 77.4 % 1,009.76 mbar 3.38 m/s 272.16 Deg 24.58 µg/m3 1.41 µg/m3
2023-01-20 01:00 3.06 µg/m3 0.44 µg/m3 61.7 µg/m3 9.59 µg/m3 3.93 µg/m3 0.22 mg/m3 10.98 °C 69.01 % 1,010.96 mbar 5.04 m/s 286.06 Deg 0.94 µg/m3 0.71 µg/m3
2023-01-19 17:00 22.93 µg/m3 0.65 µg/m3 49.15 µg/m3 9.79 µg/m3 3.7 µg/m3 0.28 mg/m3 11.5 °C 73.18 % 1,008.59 mbar 3.35 m/s 250.25 Deg 13.14 µg/m3 0.96 µg/m3
2023-01-19 09:00 22.06 µg/m3 0.56 µg/m3 51.69 µg/m3 15.65 µg/m3 5.34 µg/m3 0.25 mg/m3 13.39 °C 67.53 % 1,007.36 mbar 2.13 m/s 275.75 Deg 9.02 µg/m3 0.76 µg/m3
2023-01-19 01:00 8.96 µg/m3 0.44 µg/m3 50.17 µg/m3 245.66 µg/m3 67.03 µg/m3 0.25 mg/m3 16.84 °C 71.42 % 1,004.96 mbar 4.58 m/s 245.52 Deg 4.34 µg/m3 0.73 µg/m3
2023-01-18 17:00 13.04 µg/m3 0.44 µg/m3 45.95 µg/m3 257.34 µg/m3 71.47 µg/m3 0.24 mg/m3 18.33 °C 70.07 % 1,004.65 mbar 6.27 m/s 241.23 Deg 8.25 µg/m3 0.66 µg/m3
2023-01-18 09:00 13.77 µg/m3 0.41 µg/m3 51.47 µg/m3 218.02 µg/m3 51.86 µg/m3 0.21 mg/m3 16.36 °C 69.79 % 1,004.38 mbar 5.05 m/s 247.54 Deg 4.42 µg/m3 0.64 µg/m3
2023-01-18 01:00 4.16 µg/m3 0.33 µg/m3 57.35 µg/m3 344.2 µg/m3 84.3 µg/m3 0.19 mg/m3 17.37 °C 62.69 % 1,004.86 mbar 6.46 m/s 249.5 Deg 1.23 µg/m3 0.64 µg/m3
2023-01-17 17:00 11.46 µg/m3 0.5 µg/m3 49.18 µg/m3 49.19 µg/m3 16.06 µg/m3 0.2 mg/m3 18 °C 68.02 % 1,005.40 mbar 7.27 m/s 247.09 Deg 6.94 µg/m3 0.57 µg/m3
2023-01-17 09:00 14.11 µg/m3 0.51 µg/m3 56.49 µg/m3 49.45 µg/m3 15.65 µg/m3 0.22 mg/m3 16.07 °C 73.61 % 1,008.55 mbar 5.37 m/s 247.15 Deg 4.37 µg/m3 0.7 µg/m3
2023-01-17 01:00 9.53 µg/m3 0.49 µg/m3 66.05 µg/m3 22.51 µg/m3 9.07 µg/m3 0.25 mg/m3 15.75 °C 77.61 % 1,011.35 mbar 3.89 m/s 245.17 Deg 1.31 µg/m3 0.84 µg/m3
2023-01-16 17:00 16.81 µg/m3 0.68 µg/m3 57.08 µg/m3 22.71 µg/m3 8.78 µg/m3 0.25 mg/m3 16.9 °C 72.1 % 1,012.58 mbar 4.11 m/s 257.88 Deg 7.38 µg/m3 0.94 µg/m3
2023-01-16 09:00 22.65 µg/m3 0.54 µg/m3 50.14 µg/m3 47.28 µg/m3 13.99 µg/m3 0.24 mg/m3 15.12 °C 78.99 % 1,015.03 mbar 3.66 m/s 242.96 Deg 9.18 µg/m3 0.81 µg/m3
2023-01-16 01:00 17.19 µg/m3 0.62 µg/m3 51.39 µg/m3 9.83 µg/m3 4.5 µg/m3 0.3 mg/m3 14.49 °C 76.79 % 1,018.48 mbar 2.57 m/s 250.57 Deg 5.59 µg/m3 0.91 µg/m3
2023-01-15 17:00 10.16 µg/m3 0.57 µg/m3 59.76 µg/m3 9.9 µg/m3 4.96 µg/m3 0.29 mg/m3 15.97 °C 67.11 % 1,020.05 mbar 3.13 m/s 263.23 Deg 3.58 µg/m3 1.26 µg/m3
2023-01-15 09:00 13.14 µg/m3 0.6 µg/m3 57.22 µg/m3 12.15 µg/m3 6.09 µg/m3 0.24 mg/m3 14.59 °C 69.08 % 1,020.17 mbar 2.09 m/s 172.13 Deg 2.99 µg/m3 1.11 µg/m3
2023-01-15 01:00 9.57 µg/m3 0.49 µg/m3 54.84 µg/m3 14.99 µg/m3 7.15 µg/m3 0.24 mg/m3 15.52 °C 71.73 % 1,019.98 mbar 2.26 m/s 257.33 Deg 2 µg/m3 0.82 µg/m3
2023-01-14 17:00 8.73 µg/m3 0.51 µg/m3 55.19 µg/m3 17.01 µg/m3 8.01 µg/m3 0.21 mg/m3 16.67 °C 72.49 % 1,019.42 mbar 3.88 m/s 310.72 Deg 3.34 µg/m3 0.77 µg/m3
2023-01-14 09:00 12.08 µg/m3 0.4 µg/m3 52.53 µg/m3 15.68 µg/m3 7.3 µg/m3 0.19 mg/m3 15.21 °C 79.13 % 1,019.82 mbar 2.29 m/s 291.21 Deg 1.83 µg/m3 0.56 µg/m3
2023-01-14 01:00 9.65 µg/m3 0.53 µg/m3 57.02 µg/m3 11.22 µg/m3 5.17 µg/m3 0.25 mg/m3 14.81 °C 75.14 % 1,021.16 mbar 2.29 m/s 290.13 Deg 1.62 µg/m3 0.77 µg/m3
2023-01-13 17:00 17.51 µg/m3 0.84 µg/m3 45.02 µg/m3 14.01 µg/m3 4.92 µg/m3 0.35 mg/m3 15.62 °C 74.25 % 1,021.02 mbar 2.32 m/s 211.93 Deg 12.27 µg/m3 1.07 µg/m3
2023-01-13 09:00 34.44 µg/m3 1.44 µg/m3 23.92 µg/m3 17.92 µg/m3 6.7 µg/m3 0.39 mg/m3 13.96 °C 83.04 % 1,019.90 mbar 1.12 m/s 177.11 Deg 67.36 µg/m3 2.11 µg/m3
2023-01-13 01:00 5.26 µg/m3 0.38 µg/m3 58.26 µg/m3 18.93 µg/m3 8.82 µg/m3 0.22 mg/m3 15.51 °C 76.71 % 1,019.05 mbar 3.43 m/s 230.15 Deg 1 µg/m3 0.62 µg/m3
2023-01-12 17:00 10.54 µg/m3 0.55 µg/m3 52.46 µg/m3 17.33 µg/m3 7.81 µg/m3 0.23 mg/m3 16.23 °C 78.24 % 1,018.16 mbar 3.89 m/s 294.73 Deg 4.52 µg/m3 0.75 µg/m3
2023-01-12 09:00 15.31 µg/m3 0.49 µg/m3 54.4 µg/m3 12.57 µg/m3 5.61 µg/m3 0.21 mg/m3 14.65 °C 75.92 % 1,019.61 mbar 1.96 m/s 288.23 Deg 3.24 µg/m3 0.6 µg/m3
2023-01-12 01:00 8.19 µg/m3 0.45 µg/m3 59.6 µg/m3 14.88 µg/m3 6 µg/m3 0.23 mg/m3 14.19 °C 67.36 % 1,020.56 mbar 2.38 m/s 282.17 Deg 1.65 µg/m3 0.7 µg/m3
2023-01-11 17:00 8.34 µg/m3 0.42 µg/m3 61.96 µg/m3 13.68 µg/m3 5.15 µg/m3 0.2 mg/m3 15.67 °C 53.66 % 1,020.23 mbar 4.39 m/s 332.73 Deg 3.43 µg/m3 0.72 µg/m3
2023-01-11 09:00 10.02 µg/m3 0.41 µg/m3 62.51 µg/m3 16.76 µg/m3 6.5 µg/m3 0.18 mg/m3 14.61 °C 56.87 % 1,019.31 mbar 3.49 m/s 335.25 Deg 2.25 µg/m3 0.63 µg/m3
2023-01-11 01:00 3.43 µg/m3 0.35 µg/m3 66.59 µg/m3 17.72 µg/m3 7.58 µg/m3 0.18 mg/m3 14.52 °C 56.64 % 1,018.65 mbar 4.27 m/s 317.52 Deg 0.76 µg/m3 0.66 µg/m3
2023-01-10 17:00 5.97 µg/m3 0.38 µg/m3 61.38 µg/m3 26.33 µg/m3 11.54 µg/m3 0.18 mg/m3 15.09 °C 60.18 % 1,016.86 mbar 6.8 m/s 302.82 Deg 2.85 µg/m3 0.59 µg/m3
2023-01-10 09:00 7.16 µg/m3 0.35 µg/m3 65.42 µg/m3 16.38 µg/m3 7.14 µg/m3 0.18 mg/m3 15.78 °C 62.16 % 1,017.04 mbar 6.28 m/s 289.61 Deg 1.43 µg/m3 0.52 µg/m3
2023-01-10 01:00 7.2 µg/m3 0.3 µg/m3 60.82 µg/m3 32.91 µg/m3 12.12 µg/m3 0.22 mg/m3 16.42 °C 82.67 % 1,016.46 mbar 4.91 m/s 263.45 Deg 1 µg/m3 0.86 µg/m3
2023-01-09 17:00 11.49 µg/m3 12.24 µg/m3 61.39 µg/m3 28.5 µg/m3 11.53 µg/m3 0.21 mg/m3 17.58 °C 68.87 % 1,017.25 mbar 6.81 m/s 255.64 Deg 3 µg/m3 0.76 µg/m3
2023-01-09 09:00 26.54 µg/m3 0.63 µg/m3 44.28 µg/m3 21.64 µg/m3 8.47 µg/m3 0.28 mg/m3 15.03 °C 75.33 % 1,020.03 mbar 2.63 m/s 228.62 Deg 12.52 µg/m3 1.03 µg/m3
2023-01-09 01:00 25.78 µg/m3 0.75 µg/m3 40.64 µg/m3 7.05 µg/m3 3.55 µg/m3 0.41 mg/m3 14.57 °C 79.34 % 1,022.29 mbar 1.47 m/s 234.14 Deg 10.72 µg/m3 1.33 µg/m3
2023-01-08 17:00 13.2 µg/m3 0.93 µg/m3 50.02 µg/m3 7.88 µg/m3 4.59 µg/m3 0.39 mg/m3 16.85 °C 73.91 % 1,022.38 mbar 2.55 m/s 228.46 Deg 6.28 µg/m3 2.13 µg/m3
2023-01-08 09:00 21.5 µg/m3 0.82 µg/m3 29.79 µg/m3 9.39 µg/m3 6.26 µg/m3 0.37 mg/m3 13.68 °C 85.18 % 1,022.16 mbar 1.05 m/s 222.93 Deg 11.9 µg/m3 1.41 µg/m3
2023-01-08 01:00 45.26 µg/m3 1.79 µg/m3 6.81 µg/m3 23.86 µg/m3 14.42 µg/m3 0.63 mg/m3 13.35 °C 86.77 % 1,022.66 mbar 0.83 m/s 220.17 Deg 52.73 µg/m3 3.41 µg/m3
2023-01-07 17:00 18.31 µg/m3 1.42 µg/m3 49.77 µg/m3 17.13 µg/m3 9.66 µg/m3 0.36 mg/m3 16.37 °C 74.86 % 1,022.21 mbar 1.97 m/s 57.09 Deg 7.46 µg/m3 1.41 µg/m3
2023-01-07 09:00 29.94 µg/m3 0.99 µg/m3 26.9 µg/m3 16.92 µg/m3 12.25 µg/m3 0.32 mg/m3 13.84 °C 86.53 % 1,022.50 mbar 1.02 m/s 188.77 Deg 21.5 µg/m3 1.15 µg/m3
2023-01-07 01:00 41.31 µg/m3 1.55 µg/m3 7.21 µg/m3 24.24 µg/m3 13.42 µg/m3 0.57 mg/m3 12.73 °C 89.42 % 1,023.14 mbar 0.61 m/s 230.78 Deg 47.9 µg/m3 2.6 µg/m3
2023-01-06 17:00 29.32 µg/m3 1.22 µg/m3 39.47 µg/m3 24.06 µg/m3 11.79 µg/m3 0.46 mg/m3 16.66 °C 73.34 % 1,022.84 mbar 1.65 m/s 116.54 Deg 30.79 µg/m3 1.69 µg/m3
2023-01-06 09:00 34.67 µg/m3 1.69 µg/m3 11.73 µg/m3 18.44 µg/m3 11.05 µg/m3 0.43 mg/m3 11.63 °C 91.13 % 1,022.90 mbar 0.65 m/s 229.01 Deg 95.03 µg/m3 2.18 µg/m3
2023-01-06 01:00 37.99 µg/m3 1.06 µg/m3 19.08 µg/m3 17.43 µg/m3 10.51 µg/m3 0.42 mg/m3 13.32 °C 82.11 % 1,023.62 mbar 0.87 m/s 211.88 Deg 22.02 µg/m3 2.28 µg/m3
2023-01-05 17:00 23.37 µg/m3 0.79 µg/m3 51.45 µg/m3 16.71 µg/m3 8.43 µg/m3 0.37 mg/m3 16.68 °C 68.07 % 1,024.12 mbar 2.14 m/s 272.71 Deg 15.46 µg/m3 1.24 µg/m3
2023-01-05 09:00 39.88 µg/m3 1.41 µg/m3 20.11 µg/m3 21.16 µg/m3 11.66 µg/m3 0.41 mg/m3 13.72 °C 86.28 % 1,025.31 mbar 0.86 m/s 215.91 Deg 69.9 µg/m3 2.16 µg/m3
2023-01-05 01:00 36.91 µg/m3 1.28 µg/m3 10.28 µg/m3 20.58 µg/m3 12.42 µg/m3 0.47 mg/m3 13.81 °C 91.06 % 1,026.59 mbar 0.6 m/s 225.85 Deg 35.7 µg/m3 2.35 µg/m3
2023-01-04 17:00 23.04 µg/m3 0.9 µg/m3 44.25 µg/m3 18.5 µg/m3 9.32 µg/m3 0.37 mg/m3 17.37 °C 81.52 % 1,027.23 mbar 1.53 m/s 148.17 Deg 12.24 µg/m3 1.24 µg/m3
2023-01-04 09:00 33.8 µg/m3 1.08 µg/m3 26.78 µg/m3 16.65 µg/m3 10.13 µg/m3 0.37 mg/m3 16.12 °C 91.12 % 1,027.69 mbar 0.96 m/s 239.26 Deg 52.61 µg/m3 1.82 µg/m3
2023-01-04 01:00 31.53 µg/m3 0.92 µg/m3 21.21 µg/m3 13.34 µg/m3 7.25 µg/m3 0.42 mg/m3 16.08 °C 88.09 % 1,028.54 mbar 0.92 m/s 226.67 Deg 20.43 µg/m3 1.68 µg/m3
2023-01-03 17:00 22.41 µg/m3 0.8 µg/m3 39.27 µg/m3 12.54 µg/m3 5.91 µg/m3 0.35 mg/m3 18.34 °C 71.29 % 1,028.50 mbar 3.26 m/s 249.97 Deg 17.58 µg/m3 1.03 µg/m3
2023-01-03 09:00 34.19 µg/m3 0.99 µg/m3 18.95 µg/m3 14.79 µg/m3 7.32 µg/m3 0.39 mg/m3 14.83 °C 84.36 % 1,028.59 mbar 0.77 m/s 242.45 Deg 40.78 µg/m3 1.36 µg/m3
2023-01-03 01:00 41.04 µg/m3 1.59 µg/m3 7.88 µg/m3 20.02 µg/m3 13.17 µg/m3 0.63 mg/m3 15.39 °C 92.59 % 1,028.94 mbar 0.37 m/s 198.82 Deg 39.82 µg/m3 3.19 µg/m3
2023-01-02 17:00 29.26 µg/m3 0.92 µg/m3 29.93 µg/m3 20.31 µg/m3 8.54 µg/m3 0.37 mg/m3 17.22 °C 81.24 % 1,029.04 mbar 1.18 m/s 120.6 Deg 16.36 µg/m3 1.54 µg/m3

It is to be noted that the data is provisional and subject to quality assurance procedures. For validated data kindly refer your request to contact.air@era.org.mt